Time;durP1;ratioP1;P1;durP2;ratioP2;P2;SDS_P1;SDS_P2;PMS_P1;PMS_P2;Temp;Humidity;BMP_temperature;BMP_pressure;BME280_temperature;BME280_humidity;BME280_pressure;Samples;Min_cycle;Max_cycle;Signal;HPM_P1;HPM_P2
2024/03/13 00:00:57;;;;;;;;;3.17;2.83;;;;;13.85;74.95;101589.72;2015528;28;2734634;-77
2024/03/13 00:02:08;;;;;;;;;6.67;3.00;;;;;13.85;74.91;101592.34;1991664;28;3478372;-77
2024/03/13 00:03:21;;;;;;;;;2.00;2.00;;;;;13.87;74.71;101589.66;2030757;28;2726316;-77
2024/03/13 00:04:41;;;;;;;;;3.33;3.33;;;;;13.82;74.63;101580.09;2006849;28;2736036;-77
2024/03/13 00:05:51;;;;;;;;;3.00;3.00;;;;;13.87;74.88;101587.00;1981850;28;2748715;-77
2024/03/13 00:07:02;;;;;;;;;4.00;3.00;;;;;13.86;74.79;101582.63;2024304;28;2754496;-77
2024/03/13 00:08:14;;;;;;;;;2.00;2.00;;;;;13.92;75.03;101599.16;2035966;28;2734099;-78
2024/03/13 00:09:27;;;;;;;;;3.00;1.00;;;;;13.86;75.14;101588.78;2037485;28;2729413;-77
2024/03/13 00:10:38;;;;;;;;;3.67;3.33;;;;;13.87;74.75;101579.06;1988833;28;2749239;-77
2024/03/13 00:11:49;;;;;;;;;3.00;3.00;;;;;13.92;74.98;101593.88;2025055;28;2754442;-77
2024/03/13 00:13:00;;;;;;;;;4.00;3.67;;;;;13.89;74.81;101587.81;2018486;28;2754450;-77
2024/03/13 00:14:10;;;;;;;;;4.33;3.67;;;;;13.89;74.83;101588.69;2023916;28;2748755;-77
2024/03/13 00:15:22;;;;;;;;;3.00;3.00;;;;;13.95;74.91;101601.66;2035508;28;2741958;-77
2024/03/13 00:16:33;;;;;;;;;5.00;2.33;;;;;13.95;74.93;101599.03;2004302;28;3465885;-77
2024/03/13 00:17:44;;;;;;;;;2.00;2.00;;;;;13.92;74.98;101588.59;2037188;28;2739889;-77
2024/03/13 00:18:58;;;;;;;;;3.17;3.17;;;;;13.92;75.03;101593.00;2013179;28;2754466;-78
2024/03/13 00:20:11;;;;;;;;;3.00;3.00;;;;;13.94;75.24;101599.97;1990540;28;2752351;-78
2024/03/13 00:21:22;;;;;;;;;3.00;3.00;;;;;13.88;75.00;101588.75;2019846;28;2754496;-78
2024/03/13 00:22:36;;;;;;;;;4.33;3.00;;;;;13.92;74.95;101588.59;2029454;28;2754451;-77
2024/03/13 00:23:47;;;;;;;;;5.67;3.00;;;;;13.95;75.53;101600.84;2019731;28;2754507;-77
2024/03/13 00:24:58;;;;;;;;;4.67;3.67;;;;;13.98;75.15;101603.34;2026384;28;2754435;-77
2024/03/13 00:26:08;;;;;;;;;6.00;3.00;;;;;13.95;74.94;101600.84;2022233;28;2754502;-77
2024/03/13 00:27:20;;;;;;;;;4.33;3.33;;;;;13.95;75.24;101599.03;2036007;28;2739860;-77
2024/03/13 00:28:31;;;;;;;;;2.67;2.33;;;;;14.02;74.79;101606.78;1988463;28;2754452;-77
2024/03/13 00:29:45;;;;;;;;;6.33;3.17;;;;;13.96;74.79;101602.53;2037476;28;2741952;-77
2024/03/13 00:30:58;;;;;;;;;2.67;2.67;;;;;13.98;74.75;101599.84;2014301;28;2739901;-77
2024/03/13 00:32:16;;;;;;;;;3.83;3.83;;;;;13.99;74.96;101599.81;2013765;28;2746444;-77
2024/03/13 00:33:29;;;;;;;;;1.67;1.17;;;;;13.97;74.83;101601.63;2014506;28;2735698;-77
2024/03/13 00:34:40;;;;;;;;;3.00;3.00;;;;;13.98;74.99;101607.75;1988373;28;2746620;-77
2024/03/13 00:35:54;;;;;;;;;4.00;4.00;;;;;14.03;75.01;101605.84;2036168;28;2737774;-77
2024/03/13 00:37:09;;;;;;;;;6.67;4.33;;;;;13.95;74.78;101604.31;2038233;28;2745051;-77
2024/03/13 00:38:25;;;;;;;;;5.00;3.83;;;;;13.97;74.89;101608.69;2020433;28;2739876;-77
2024/03/13 00:39:39;;;;;;;;;4.67;4.67;;;;;13.98;74.78;101611.28;2020358;28;2742965;-78
2024/03/13 00:40:49;;;;;;;;;3.00;3.00;;;;;14.02;74.93;101604.13;1987243;28;2754487;-77
2024/03/13 00:42:02;;;;;;;;;2.00;2.00;;;;;13.98;74.92;101603.34;2032428;28;2738858;-77
2024/03/13 00:43:15;;;;;;;;;3.50;3.00;;;;;13.99;74.80;101594.53;2020195;28;2739880;-77
2024/03/13 00:44:29;;;;;;;;;8.33;4.00;;;;;14.01;74.95;101590.03;2005532;28;2753461;-76
2024/03/13 00:45:42;;;;;;;;;3.83;3.83;;;;;14.06;74.58;101603.09;2007192;28;2739911;-77
2024/03/13 00:46:56;;;;;;;;;4.00;4.00;;;;;14.02;74.64;101590.91;2019621;28;2738186;-77
2024/03/13 00:48:11;;;;;;;;;5.50;4.83;;;;;14.04;75.01;101592.59;2010366;28;2734663;-77
2024/03/13 00:49:24;;;;;;;;;5.83;4.67;;;;;14.03;74.72;101592.63;2014436;28;2745119;-77
2024/03/13 00:50:35;;;;;;;;;4.00;4.00;;;;;14.06;74.72;101598.69;1995972;28;2754841;-77
2024/03/13 00:51:46;;;;;;;;;4.67;4.67;;;;;14.06;74.62;101598.69;2027292;28;2749219;-77
2024/03/13 00:52:57;;;;;;;;;6.00;4.00;;;;;14.02;74.71;101597.06;2032125;28;2750253;-76
2024/03/13 00:54:11;;;;;;;;;6.67;4.00;;;;;14.04;74.83;101594.38;2033976;28;2748195;-77
2024/03/13 00:55:23;;;;;;;;;7.33;4.67;;;;;14.04;74.85;101597.00;1986874;28;3478372;-77
2024/03/13 00:56:33;;;;;;;;;5.33;4.67;;;;;14.05;74.96;101598.75;2010059;28;2750348;-77
2024/03/13 00:57:46;;;;;;;;;5.67;5.67;;;;;14.02;74.82;101589.13;2023451;28;2750324;-77
2024/03/13 00:58:57;;;;;;;;;5.67;5.67;;;;;14.03;74.98;101596.13;2011257;28;2745043;-76
2024/03/13 01:00:10;;;;;;;;;5.67;5.33;;;;;14.12;74.80;101607.31;2019364;28;2743042;-77
2024/03/13 01:01:23;;;;;;;;;5.67;5.67;;;;;14.06;74.99;101605.75;2044920;28;2739852;-77
2024/03/13 01:02:34;;;;;;;;;5.67;4.00;;;;;14.07;74.83;101600.38;1991888;28;2752383;-77
2024/03/13 01:03:46;;;;;;;;;4.80;4.40;;;;;14.03;74.85;101596.13;2044435;28;2742982;-76
2024/03/13 01:04:59;;;;;;;;;6.00;5.00;;;;;14.05;74.75;101604.03;2013537;28;2746095;-77
2024/03/13 01:06:10;;;;;;;;;5.00;5.00;;;;;14.05;74.63;101599.59;1979244;28;2746158;-77
2024/03/13 01:07:22;;;;;;;;;8.33;5.67;;;;;14.11;74.78;101614.38;2019139;28;3476345;-77
2024/03/13 01:08:35;;;;;;;;;4.33;4.00;;;;;14.03;74.85;101600.56;2010933;28;3462792;-77
2024/03/13 01:09:45;;;;;;;;;6.00;5.00;;;;;14.07;74.96;101610.97;2019367;28;2752683;-76
2024/03/13 01:10:58;;;;;;;;;5.33;5.33;;;;;14.06;74.87;101606.63;2043802;28;2739847;-77
2024/03/13 01:12:09;;;;;;;;;6.33;6.00;;;;;14.04;74.91;101603.16;2018397;28;2746086;-77
2024/03/13 01:13:20;;;;;;;;;9.00;6.00;;;;;14.04;74.84;101602.28;2030901;28;2748239;-77
2024/03/13 01:14:31;;;;;;;;;8.00;8.00;;;;;14.07;74.92;101607.47;2035918;28;2743257;-77
2024/03/13 01:15:43;;;;;;;;;8.00;7.00;;;;;14.11;74.80;101609.09;1994084;28;2752449;-77
2024/03/13 01:16:58;;;;;;;;;9.17;8.00;;;;;14.05;74.83;101609.31;2041632;28;2738828;-77
2024/03/13 01:18:11;;;;;;;;;9.17;7.17;;;;;14.10;74.97;101617.09;2012006;28;2730014;-77
2024/03/13 01:19:23;;;;;;;;;10.33;8.33;;;;;14.07;74.66;101608.31;1986436;28;3481529;-76
2024/03/13 01:20:33;;;;;;;;;8.00;7.00;;;;;14.05;74.78;101601.38;2016655;28;2741975;-76
2024/03/13 01:21:44;;;;;;;;;6.33;6.00;;;;;14.07;74.77;101608.31;2032693;28;2744039;-76
2024/03/13 01:22:56;;;;;;;;;7.50;7.00;;;;;14.04;75.01;101600.53;2034973;28;2735705;-76
2024/03/13 01:24:09;;;;;;;;;3.17;2.00;;;;;14.10;74.63;101612.66;2016466;28;2735709;-77
2024/03/13 01:25:19;;;;;;;;;9.67;7.33;;;;;14.04;75.07;101600.53;1994979;28;2746206;-77
2024/03/13 01:26:34;;;;;;;;;7.00;7.00;;;;;14.04;75.00;101604.94;2033643;28;3454451;-77
2024/03/13 01:27:46;;;;;;;;;9.33;8.00;;;;;14.03;74.55;101600.56;2023275;28;1824716;-77
2024/03/13 01:28:59;;;;;;;;;8.50;7.67;;;;;14.05;74.89;101606.69;2012599;28;2736174;-77
2024/03/13 01:30:10;;;;;;;;;5.67;5.67;;;;;14.03;74.96;101601.41;1989711;28;3454438;-77
2024/03/13 01:31:23;;;;;;;;;9.25;8.75;;;;;14.08;74.99;101617.13;2023177;28;1833584;-77
2024/03/13 01:32:35;;;;;;;;;7.50;7.50;;;;;14.05;75.12;101610.16;2023349;28;1834633;-77
2024/03/13 01:33:48;;;;;;;;;8.17;7.67;;;;;13.98;74.97;101598.06;2044593;28;2739855;-77
2024/03/13 01:34:59;;;;;;;;;13.00;7.67;;;;;14.06;74.93;101614.53;2008585;28;1826349;-77
2024/03/13 01:36:10;;;;;;;;;8.33;6.67;;;;;14.04;75.03;101602.28;1994492;28;2745206;-77
2024/03/13 01:38:50;;;;;;;;;15.67;10.33;;;;;14.07;75.08;101612.78;2004781;28;3510623;-77
2024/03/13 01:40:04;;;;;;;;;7.33;4.67;;;;;14.04;75.35;101607.56;2029631;28;2744007;-77
2024/03/13 01:55:06;;;;;;;;;7.00;5.67;;;;;13.84;75.05;101604.69;2019000;28;2743005;-77
2024/03/13 01:56:27;;;;;;;;;5.67;5.67;;;;;13.78;75.25;101599.59;2004352;28;2746195;-77
2024/03/13 01:59:48;;;;;;;;;8.00;8.00;;;;;13.87;75.11;101616.94;1977942;28;2745230;-76
2024/03/13 02:02:28;;;;;;;;;4.67;4.67;;;;;13.79;75.52;101608.38;2015416;28;2739925;-77
2024/03/13 02:03:40;;;;;;;;;4.00;4.00;;;;;13.79;75.13;101598.69;2033459;28;2748797;-77
2024/03/13 02:04:51;;;;;;;;;9.67;7.67;;;;;13.85;75.33;101613.50;2018704;28;3466887;-77
2024/03/13 02:06:04;;;;;;;;;5.00;5.00;;;;;13.80;75.09;101618.91;2018305;28;2746197;-77
2024/03/13 02:07:16;;;;;;;;;6.33;6.33;;;;;13.73;75.08;101602.38;2017329;28;2749228;-77
2024/03/13 02:08:30;;;;;;;;;8.50;7.17;;;;;13.79;75.31;101616.31;2045246;28;2735698;-77
2024/03/13 02:09:44;;;;;;;;;6.00;6.00;;;;;13.76;75.23;101613.75;2011705;28;2745104;-77
2024/03/13 02:10:58;;;;;;;;;8.67;6.67;;;;;13.69;75.36;101603.41;1974410;28;2754557;-77
2024/03/13 02:12:10;;;;;;;;;8.33;6.67;;;;;13.69;75.49;101599.91;2007388;28;2745065;-76
2024/03/13 02:13:20;;;;;;;;;7.33;6.33;;;;;13.75;75.15;101609.41;2018329;28;2750376;-76
2024/03/13 02:14:33;;;;;;;;;7.00;5.67;;;;;13.67;75.42;101599.09;2034688;28;2743356;-77
2024/03/13 02:15:43;;;;;;;;;9.67;7.67;;;;;13.71;75.39;101603.34;2002606;28;2767047;-77
2024/03/13 02:16:54;;;;;;;;;9.00;8.00;;;;;13.67;75.22;101592.03;2011496;28;2751381;-77
2024/03/13 02:18:16;;;;;;;;;6.00;6.00;;;;;13.67;75.03;101592.03;2031683;28;2745121;-76
2024/03/13 02:19:29;;;;;;;;;10.00;7.33;;;;;13.71;75.37;101598.06;2018422;28;2761320;-77
2024/03/13 02:20:43;;;;;;;;;6.50;5.17;;;;;13.66;75.22;101587.66;2041761;28;2745057;-77
2024/03/13 02:22:00;;;;;;;;;7.00;7.00;;;;;13.65;75.16;101591.22;2021579;28;2740920;-77
2024/03/13 02:23:12;;;;;;;;;7.00;7.00;;;;;13.65;74.87;101588.59;1989822;28;2752350;-77
2024/03/13 02:24:22;;;;;;;;;8.33;5.67;;;;;13.67;74.76;101594.69;2003178;28;2748214;-77
2024/03/13 02:25:34;;;;;;;;;5.00;5.00;;;;;13.64;74.74;101594.75;2026086;28;2740389;-77
2024/03/13 02:26:45;;;;;;;;;12.67;8.00;;;;;13.58;74.87;101579.97;2010568;28;2766493;-77
2024/03/13 02:27:56;;;;;;;;;10.00;7.67;;;;;13.61;75.02;101584.28;2017273;28;3486741;-77
2024/03/13 02:29:07;;;;;;;;;5.67;5.67;;;;;13.64;74.81;101597.41;2029913;28;2746106;-76
2024/03/13 02:30:18;;;;;;;;;10.00;7.00;;;;;13.61;74.96;101600.13;2008155;28;3502315;-77
2024/03/13 02:31:29;;;;;;;;;5.00;5.00;;;;;13.54;74.93;101588.88;1995381;28;3464835;-77
2024/03/13 02:32:40;;;;;;;;;9.33;7.00;;;;;13.52;74.75;101589.84;2026794;28;2753405;-77
2024/03/13 02:33:50;;;;;;;;;8.00;6.33;;;;;13.48;75.15;101587.28;1988523;28;2752408;-77
2024/03/13 02:35:03;;;;;;;;;4.00;4.00;;;;;13.46;74.80;101583.84;2017640;28;2748686;-77
2024/03/13 02:36:16;;;;;;;;;7.50;5.83;;;;;13.47;75.13;101588.22;2035789;28;2753888;-77
2024/03/13 02:37:26;;;;;;;;;8.33;6.00;;;;;13.44;74.82;101587.44;1995070;28;2753774;-76
2024/03/13 02:38:37;;;;;;;;;9.33;5.00;;;;;13.43;75.24;101580.44;2034873;28;2758664;-77
2024/03/13 02:39:48;;;;;;;;;5.00;5.00;;;;;13.41;75.50;101583.13;2030944;28;3465846;-77
2024/03/13 02:41:00;;;;;;;;;7.50;5.00;;;;;13.46;74.68;101586.47;2033492;28;2742975;-77
2024/03/13 02:42:16;;;;;;;;;6.50;6.33;;;;;13.38;74.93;101583.25;2028291;28;2742973;-77
2024/03/13 02:43:27;;;;;;;;;8.00;5.67;;;;;13.36;74.93;101579.75;1980522;28;2748178;-77
2024/03/13 02:44:38;;;;;;;;;8.33;4.67;;;;;13.35;75.42;101583.31;2029238;28;2745057;-77
2024/03/13 02:45:49;;;;;;;;;10.00;5.67;;;;;13.35;75.34;101581.56;1989014;28;2760743;-76
2024/03/13 02:46:59;;;;;;;;;7.67;5.67;;;;;13.39;75.10;101592.88;2014446;28;3473177;-77
2024/03/13 02:48:12;;;;;;;;;8.00;8.00;;;;;13.37;75.09;101592.06;2022305;28;2745112;-77
2024/03/13 02:49:22;;;;;;;;;5.67;4.67;;;;;13.33;75.25;101577.22;2003222;28;2754420;-77
2024/03/13 02:50:33;;;;;;;;;10.33;7.00;;;;;13.31;75.04;101585.19;2032950;28;3502351;-77
2024/03/13 02:51:44;;;;;;;;;6.33;6.33;;;;;13.35;75.21;101591.25;2046161;28;1816918;-77
2024/03/13 02:52:55;;;;;;;;;9.67;9.00;;;;;13.37;74.75;101594.69;2003195;28;2763948;-77
2024/03/13 02:54:06;;;;;;;;;5.00;4.67;;;;;13.32;75.09;101589.56;2031135;28;3457536;-77
2024/03/13 02:55:18;;;;;;;;;9.50;7.75;;;;;13.36;74.79;101598.22;2041999;28;2754508;-77
2024/03/13 02:56:29;;;;;;;;;14.00;8.67;;;;;13.32;74.93;101591.31;2001167;28;3486690;-77
2024/03/13 02:57:40;;;;;;;;;10.00;6.67;;;;;13.32;75.21;101593.97;2035650;28;2748189;-77
2024/03/13 02:58:53;;;;;;;;;5.67;5.67;;;;;13.28;75.27;101582.66;2022086;28;2742989;-77
2024/03/13 03:00:06;;;;;;;;;8.67;7.67;;;;;13.32;74.71;101586.91;1992465;28;2737778;-77
2024/03/13 03:01:16;;;;;;;;;6.67;6.33;;;;;13.22;74.76;101572.28;2009097;28;3473145;-77
2024/03/13 03:02:27;;;;;;;;;7.00;7.00;;;;;13.29;75.02;101587.00;2026423;28;2742963;-77
2024/03/13 03:03:39;;;;;;;;;4.67;4.67;;;;;13.26;74.70;101584.47;1972289;28;2752441;-76
2024/03/13 03:04:50;;;;;;;;;7.00;7.00;;;;;13.23;74.96;101580.16;1999267;28;2742973;-77
2024/03/13 03:06:01;;;;;;;;;9.00;8.00;;;;;13.16;74.98;101579.47;2012256;28;2751316;-77
2024/03/13 03:07:12;;;;;;;;;7.33;5.00;;;;;13.19;75.12;101582.91;2018242;28;2749341;-77
2024/03/13 03:08:23;;;;;;;;;9.67;5.00;;;;;13.13;75.17;101578.72;2018502;28;2758625;-77
2024/03/13 03:09:34;;;;;;;;;8.00;7.00;;;;;13.18;74.94;101578.56;2034396;28;2743005;-76
2024/03/13 03:10:48;;;;;;;;;7.50;7.50;;;;;13.16;75.04;101587.38;2027140;28;2740912;-77
2024/03/13 03:11:58;;;;;;;;;8.00;4.33;;;;;13.14;75.04;101585.69;1988193;28;2744035;-77
2024/03/13 03:13:10;;;;;;;;;8.00;4.00;;;;;13.09;74.51;101575.28;2035066;28;2750366;-77
2024/03/13 03:14:23;;;;;;;;;6.00;5.17;;;;;13.11;74.99;101580.53;2043318;28;2754789;-77
2024/03/13 03:15:34;;;;;;;;;6.67;4.00;;;;;13.13;75.09;101589.25;1992789;28;2752860;-77
2024/03/13 03:16:48;;;;;;;;;7.33;4.00;;;;;13.11;75.36;101591.09;2036009;28;2757567;-77
2024/03/13 03:17:59;;;;;;;;;8.33;5.00;;;;;13.11;74.96;101581.38;1990983;28;3467960;-77
2024/03/13 03:19:15;;;;;;;;;3.33;3.33;;;;;13.14;75.04;101597.13;2044399;28;2741912;-77
2024/03/13 03:20:25;;;;;;;;;5.00;5.00;;;;;13.10;74.86;101592.00;1981550;28;2750288;-77
2024/03/13 03:21:37;;;;;;;;;7.67;5.33;;;;;13.11;75.08;101596.38;2019242;28;2754471;-77
2024/03/13 03:22:51;;;;;;;;;3.50;3.50;;;;;13.16;75.02;101605.03;2040697;28;2741932;-77
2024/03/13 03:24:02;;;;;;;;;4.00;4.00;;;;;13.11;75.28;101602.50;1993878;28;2735765;-77
2024/03/13 03:25:12;;;;;;;;;6.33;6.33;;;;;13.09;74.88;101587.63;2008388;28;3470091;-78
2024/03/13 03:26:28;;;;;;;;;7.33;5.00;;;;;13.15;75.10;101593.59;2035084;28;2747151;-77
2024/03/13 03:27:38;;;;;;;;;8.67;4.00;;;;;13.11;75.13;101593.72;1991732;28;3482536;-77
2024/03/13 03:28:49;;;;;;;;;9.00;5.33;;;;;13.07;75.15;101589.44;2023425;28;3476638;-77
2024/03/13 03:30:01;;;;;;;;;5.33;5.33;;;;;13.02;74.80;101582.53;2018472;28;2754434;-77
2024/03/13 03:31:11;;;;;;;;;7.67;5.00;;;;;13.07;74.87;101602.63;2008665;28;2752441;-77
2024/03/13 03:32:22;;;;;;;;;8.67;5.67;;;;;13.09;74.97;101606.94;2033687;28;2748170;-77
2024/03/13 03:33:34;;;;;;;;;5.67;5.00;;;;;13.04;74.93;101595.66;1992961;28;2752942;-77
2024/03/13 03:34:45;;;;;;;;;9.67;5.67;;;;;13.11;74.69;101602.50;2018204;28;2755502;-77
2024/03/13 03:35:56;;;;;;;;;7.00;7.00;;;;;13.08;74.68;101602.59;2025297;28;2741951;-77
2024/03/13 03:37:07;;;;;;;;;9.00;7.00;;;;;13.00;74.57;101583.47;2023902;28;2755614;-77
2024/03/13 03:38:19;;;;;;;;;5.60;4.00;;;;;13.08;74.84;101604.38;2026541;28;2738803;-77
2024/03/13 03:39:33;;;;;;;;;10.33;6.33;;;;;13.07;75.00;101605.25;1982967;28;3483585;-77
2024/03/13 03:40:43;;;;;;;;;6.33;6.33;;;;;13.06;74.93;101607.06;2017942;28;2748217;-77
2024/03/13 03:41:56;;;;;;;;;8.33;7.00;;;;;13.08;74.82;101610.53;2030671;28;2746125;-77
2024/03/13 03:43:07;;;;;;;;;6.00;5.67;;;;;13.00;74.75;101605.47;2003068;28;2752360;-77
2024/03/13 03:44:18;;;;;;;;;10.00;7.00;;;;;13.00;74.75;101605.47;2017132;28;3490868;-77
2024/03/13 03:45:32;;;;;;;;;5.80;5.40;;;;;13.01;75.03;101598.41;2028496;28;2750237;-77
2024/03/13 03:46:42;;;;;;;;;9.00;7.00;;;;;13.01;74.85;101601.91;1995302;28;3483900;-77
2024/03/13 03:47:53;;;;;;;;;8.33;7.00;;;;;13.02;74.79;101600.13;2021662;28;2750359;-77
2024/03/13 03:49:05;;;;;;;;;9.00;6.33;;;;;13.03;74.86;101607.16;2022891;28;2753482;-77
2024/03/13 03:50:18;;;;;;;;;7.00;7.00;;;;;13.05;75.01;101603.56;2041919;28;2738258;-77
2024/03/13 03:51:32;;;;;;;;;6.00;5.33;;;;;13.12;74.77;101606.00;2019067;28;2748560;-77
2024/03/13 03:52:47;;;;;;;;;5.83;5.83;;;;;13.04;74.70;101601.81;2020539;28;2736727;-77
2024/03/13 03:54:01;;;;;;;;;5.00;4.00;;;;;13.05;74.63;101594.75;2018937;28;2741918;-77
2024/03/13 03:55:15;;;;;;;;;5.83;4.17;;;;;13.07;74.83;101600.00;2020681;28;2750254;-78
2024/03/13 03:56:28;;;;;;;;;2.83;1.67;;;;;13.05;74.72;101600.03;2003691;28;2737841;-77
2024/03/13 03:57:41;;;;;;;;;3.67;3.67;;;;;13.05;74.74;101605.31;2009732;28;2738798;-77
2024/03/13 03:58:51;;;;;;;;;2.67;2.67;;;;;13.08;74.46;101607.88;1985420;28;2734633;-77
2024/03/13 04:00:05;;;;;;;;;6.33;4.33;;;;;13.01;74.33;101601.06;2026824;28;2748177;-77
2024/03/13 04:01:19;;;;;;;;;7.33;7.17;;;;;13.02;74.45;101597.50;2032118;28;2745116;-78
2024/03/13 04:02:29;;;;;;;;;4.00;4.00;;;;;13.04;74.62;101606.22;1991021;28;2752396;-77
2024/03/13 04:03:41;;;;;;;;;8.67;4.00;;;;;13.03;74.43;101608.03;2033599;28;2751308;-77
2024/03/13 04:04:52;;;;;;;;;5.00;5.00;;;;;13.03;74.44;101604.50;2018482;28;3455798;-77
2024/03/13 04:06:03;;;;;;;;;5.00;4.00;;;;;13.08;74.90;101614.94;2018511;28;2750249;-77
2024/03/13 04:07:14;;;;;;;;;8.67;4.00;;;;;13.04;74.73;101607.09;2019868;28;2756568;-77
2024/03/13 04:08:25;;;;;;;;;4.00;3.00;;;;;13.07;74.76;101607.91;2044110;28;2750306;-77
2024/03/13 04:09:36;;;;;;;;;8.67;4.00;;;;;13.09;74.95;101614.88;1996902;28;2755469;-77
2024/03/13 04:10:49;;;;;;;;;5.33;4.50;;;;;13.08;74.79;101607.00;2030951;28;2746111;-77
2024/03/13 04:12:03;;;;;;;;;6.00;6.00;;;;;13.09;74.74;101609.59;2005231;28;2750279;-77
2024/03/13 04:13:13;;;;;;;;;7.00;7.00;;;;;13.14;74.74;101612.09;1980788;28;2752352;-77
2024/03/13 04:14:24;;;;;;;;;6.00;5.67;;;;;13.12;74.56;101608.63;2035628;28;2746123;-78
2024/03/13 04:15:37;;;;;;;;;4.17;4.17;;;;;13.15;74.70;101613.84;2011764;28;2741943;-78
2024/03/13 04:16:50;;;;;;;;;5.00;4.67;;;;;13.11;74.54;101607.75;2006883;28;2743043;-77
2024/03/13 04:18:04;;;;;;;;;5.17;4.83;;;;;13.12;74.49;101603.34;2013779;28;2736736;-77
2024/03/13 04:19:17;;;;;;;;;3.83;3.83;;;;;13.13;74.69;101605.97;2013836;28;2741944;-77
2024/03/13 04:20:27;;;;;;;;;3.67;3.00;;;;;13.12;74.43;101596.31;1980581;28;2752458;-77
2024/03/13 04:21:39;;;;;;;;;8.67;5.67;;;;;13.18;74.73;101604.97;2018150;28;3459627;-77
2024/03/13 04:22:54;;;;;;;;;4.20;3.20;;;;;13.15;74.85;101595.34;2021377;28;2751298;-77
2024/03/13 04:24:07;;;;;;;;;7.33;5.00;;;;;13.17;74.91;101601.44;2008986;28;3465892;-77
2024/03/13 04:25:20;;;;;;;;;6.33;4.67;;;;;13.19;74.31;101599.63;2044332;28;2750321;-77
2024/03/13 04:26:34;;;;;;;;;4.33;4.00;;;;;13.22;74.35;101610.09;1988884;28;3454408;-77
2024/03/13 04:27:47;;;;;;;;;2.67;1.33;;;;;13.19;74.42;101599.63;2045645;28;2739851;-77
2024/03/13 04:28:58;;;;;;;;;5.67;5.00;;;;;13.24;74.34;101603.00;2019712;28;2754939;-78
2024/03/13 04:30:09;;;;;;;;;3.00;2.00;;;;;13.26;74.68;101600.31;2025352;28;2741935;-77
2024/03/13 04:31:20;;;;;;;;;6.33;6.33;;;;;13.22;74.18;101598.66;2015361;28;3463838;-77
2024/03/13 04:32:30;;;;;;;;;4.00;4.00;;;;;13.21;74.20;101600.44;2010149;28;2748170;-77
2024/03/13 04:33:42;;;;;;;;;4.25;4.25;;;;;13.19;74.33;101596.13;2039339;28;2750261;-77
2024/03/13 04:34:53;;;;;;;;;6.00;4.00;;;;;13.25;74.43;101612.66;2018545;28;2745049;-77
2024/03/13 04:36:04;;;;;;;;;3.00;3.00;;;;;13.19;74.46;101599.63;2028122;28;2754423;-77
2024/03/13 04:37:15;;;;;;;;;6.33;5.00;;;;;13.25;74.42;101614.41;2016599;28;2748202;-77
2024/03/13 04:38:25;;;;;;;;;8.00;4.00;;;;;13.24;74.29;101612.69;2010813;28;2744630;-77
2024/03/13 04:39:36;;;;;;;;;9.33;4.67;;;;;13.18;74.26;101605.84;2024252;28;3473202;-77
2024/03/13 04:40:47;;;;;;;;;5.00;5.00;;;;;13.20;74.34;101600.50;2035305;28;2745117;-77
2024/03/13 04:42:01;;;;;;;;;6.67;5.33;;;;;13.20;74.35;101611.06;2016035;28;2746154;-77
2024/03/13 04:43:11;;;;;;;;;8.67;3.33;;;;;13.21;74.29;101611.00;1995636;28;2750349;-77
2024/03/13 04:44:22;;;;;;;;;4.00;3.00;;;;;13.19;74.13;101606.66;2043762;28;2729463;-78
2024/03/13 04:45:39;;;;;;;;;7.00;4.00;;;;;13.21;74.30;101603.06;1995281;28;2754455;-77
2024/03/13 04:46:49;;;;;;;;;9.67;4.33;;;;;13.21;74.47;101605.72;2017175;28;3481509;-77
2024/03/13 04:48:00;;;;;;;;;6.00;6.00;;;;;13.20;74.53;101601.38;2034161;28;2747132;-77
2024/03/13 04:49:11;;;;;;;;;10.00;8.00;;;;;13.23;74.16;101600.41;1988940;28;2768097;-77
2024/03/13 04:50:23;;;;;;;;;4.00;4.00;;;;;13.22;74.45;101604.81;2044313;28;2742438;-77
2024/03/13 04:51:37;;;;;;;;;6.17;4.00;;;;;13.27;73.90;101612.59;2044334;28;2741933;-78
2024/03/13 04:52:51;;;;;;;;;4.67;4.67;;;;;13.19;74.07;101602.25;2014853;28;2742996;-77
2024/03/13 04:54:01;;;;;;;;;9.00;4.00;;;;;13.18;74.21;101603.19;1995537;28;2754962;-77
2024/03/13 04:55:12;;;;;;;;;3.00;3.00;;;;;13.24;74.06;101613.56;2043912;28;2750261;-77
2024/03/13 04:56:23;;;;;;;;;7.33;6.33;;;;;13.21;73.96;101608.34;1986203;28;2742990;-78
2024/03/13 04:57:34;;;;;;;;;9.67;6.00;;;;;13.17;74.26;101604.09;2021449;28;3476301;-78
2024/03/13 04:58:44;;;;;;;;;7.67;5.67;;;;;13.21;73.90;101608.34;2019957;28;2748190;-78
2024/03/13 04:59:55;;;;;;;;;6.33;5.00;;;;;13.24;73.99;101617.97;2010802;28;3463791;-78
2024/03/13 05:01:07;;;;;;;;;8.00;4.00;;;;;13.20;73.67;101611.06;2007865;28;2744062;-78
2024/03/13 05:02:18;;;;;;;;;8.67;8.67;;;;;13.19;74.04;101610.19;2006952;28;2750292;-78
2024/03/13 05:03:30;;;;;;;;;6.67;5.00;;;;;13.20;74.06;101614.56;2032158;28;2748206;-78
2024/03/13 05:04:44;;;;;;;;;5.67;3.33;;;;;13.22;73.98;101610.09;2019631;28;2749557;-77
2024/03/13 05:05:54;;;;;;;;;10.00;4.00;;;;;13.25;74.11;101623.22;2016441;28;2765912;-77
2024/03/13 05:07:08;;;;;;;;;5.00;4.33;;;;;13.20;73.96;101617.19;2031860;28;2754537;-78
2024/03/13 05:08:21;;;;;;;;;6.67;5.33;;;;;13.27;73.94;101618.75;2037715;28;2741969;-78
2024/03/13 05:09:34;;;;;;;;;4.50;3.00;;;;;13.19;73.93;101615.47;2005037;28;2752343;-78
2024/03/13 05:10:47;;;;;;;;;4.00;4.00;;;;;13.21;74.13;101618.06;2003328;28;2754427;-78
2024/03/13 05:11:58;;;;;;;;;5.67;5.00;;;;;13.28;73.84;101633.66;1987719;28;3466384;-78
2024/03/13 05:13:09;;;;;;;;;6.33;5.67;;;;;13.21;73.92;101613.63;2043545;28;2737765;-77
2024/03/13 05:14:19;;;;;;;;;5.67;4.00;;;;;13.20;73.95;101616.34;1995398;28;2748197;-77
2024/03/13 05:15:30;;;;;;;;;5.67;4.00;;;;;13.21;74.29;101613.63;2034835;28;2737210;-78
2024/03/13 05:16:45;;;;;;;;;4.00;4.00;;;;;13.23;73.93;101625.03;2038789;28;2750264;-78
2024/03/13 05:17:57;;;;;;;;;5.33;4.00;;;;;13.24;73.75;101620.59;1995283;28;2739873;-78
2024/03/13 05:19:07;;;;;;;;;8.33;7.67;;;;;13.19;74.03;101612.81;2009898;28;3478387;-78
2024/03/13 05:20:18;;;;;;;;;6.00;6.00;;;;;13.26;74.05;101622.28;2027312;28;2754527;-78
2024/03/13 05:21:29;;;;;;;;;6.33;4.00;;;;;13.20;73.81;101611.06;2031624;28;3463826;-78
2024/03/13 05:22:40;;;;;;;;;5.33;5.00;;;;;13.21;74.01;101611.00;2014107;28;3467984;-78
2024/03/13 05:23:52;;;;;;;;;5.75;4.75;;;;;13.18;73.87;101607.59;2020505;28;2741917;-77
2024/03/13 05:25:04;;;;;;;;;7.00;4.00;;;;;13.19;73.99;101610.19;2008416;28;2754426;-78
2024/03/13 05:26:14;;;;;;;;;9.00;7.00;;;;;13.22;73.76;101615.38;2017991;28;2753374;-78
2024/03/13 05:27:26;;;;;;;;;7.33;6.33;;;;;13.24;74.00;101616.19;2043222;28;2748265;-77
2024/03/13 05:28:39;;;;;;;;;6.00;4.83;;;;;13.20;73.84;101601.38;2014375;28;2739873;-77
2024/03/13 05:29:50;;;;;;;;;5.33;4.00;;;;;13.23;73.89;101618.88;1979592;28;2740354;-77
2024/03/13 05:31:03;;;;;;;;;5.67;3.50;;;;;13.24;73.80;101610.03;2026468;28;2748178;-78
2024/03/13 05:32:16;;;;;;;;;8.17;4.67;;;;;13.22;73.95;101615.38;2005707;28;2750296;-77
2024/03/13 05:33:30;;;;;;;;;4.67;4.17;;;;;13.25;73.72;101611.78;2005282;28;2736756;-78
2024/03/13 05:34:43;;;;;;;;;7.50;4.50;;;;;13.25;73.82;101614.41;2007395;28;2749212;-78
2024/03/13 05:35:53;;;;;;;;;4.67;4.33;;;;;13.19;73.71;101609.31;1991316;28;3461714;-78
2024/03/13 05:37:04;;;;;;;;;4.00;4.00;;;;;13.17;73.84;101606.72;2026718;28;2747136;-78
2024/03/13 05:38:17;;;;;;;;;3.50;2.75;;;;;13.25;74.04;101619.69;2044174;28;2737000;-77
2024/03/13 05:39:27;;;;;;;;;5.00;3.33;;;;;13.23;73.93;101616.25;2010267;28;3451290;-78
2024/03/13 05:40:38;;;;;;;;;4.33;4.33;;;;;13.25;74.25;101623.22;2027169;28;2746194;-78
2024/03/13 05:41:51;;;;;;;;;5.17;4.33;;;;;13.23;73.99;101617.13;2011650;28;2752381;-78
2024/03/13 05:43:05;;;;;;;;;7.67;6.00;;;;;13.22;73.75;101611.88;2013539;28;2746597;-78
2024/03/13 05:44:15;;;;;;;;;7.00;7.00;;;;;13.25;74.09;101620.56;1995202;28;2754563;-78
2024/03/13 05:45:26;;;;;;;;;7.00;4.00;;;;;13.25;73.85;101624.97;2032085;28;2744038;-78
2024/03/13 05:46:38;;;;;;;;;4.00;4.00;;;;;13.25;73.50;101617.94;2034433;28;2737776;-78